createdAt,value
2019-01-25T00:01:37.654Z,101428.77
2019-01-25T00:04:09.959Z,101435.85
2019-01-25T00:06:43.422Z,101430.50
2019-01-25T00:09:16.295Z,101423.91
2019-01-25T00:11:49.733Z,101423.04
2019-01-25T00:14:22.689Z,101425.84
2019-01-25T00:16:55.389Z,101424.20
2019-01-25T00:19:28.253Z,101414.61
2019-01-25T00:22:01.697Z,101421.45
2019-01-25T00:24:34.755Z,101425.84
2019-01-25T00:27:06.844Z,101431.22
2019-01-25T00:29:39.242Z,101417.24
2019-01-25T00:32:11.267Z,101427.26
2019-01-25T00:34:43.440Z,101426.32
2019-01-25T00:37:15.950Z,101419.67
2019-01-25T00:39:48.174Z,101427.09
2019-01-25T00:42:21.175Z,101414.88
2019-01-25T00:44:53.008Z,101407.74
2019-01-25T00:47:25.192Z,101413.13
2019-01-25T00:49:57.938Z,101404.14
2019-01-25T00:52:30.036Z,101411.02
2019-01-25T00:55:02.270Z,101413.17
2019-01-25T00:57:34.433Z,101417.71
2019-01-25T01:00:22.778Z,101423.50
2019-01-25T01:02:55.216Z,101421.52
2019-01-25T01:05:27.500Z,101420.71
2019-01-25T01:08:00.571Z,101416.86
2019-01-25T01:10:33.115Z,101419.00
2019-01-25T01:13:05.864Z,101411.51
2019-01-25T01:15:37.710Z,101413.69
2019-01-25T01:18:10.415Z,101419.36
2019-01-25T01:20:44.849Z,101425.30
2019-01-25T01:23:17.553Z,101412.39
2019-01-25T01:25:50.205Z,101423.59
2019-01-25T01:28:29.890Z,101418.97
2019-01-25T01:31:03.532Z,101427.67
2019-01-25T01:33:35.369Z,101422.34
2019-01-25T01:36:07.597Z,101429.59
2019-01-25T01:38:39.923Z,101430.53
2019-01-25T01:41:12.601Z,101424.19
2019-01-25T01:43:44.910Z,101424.36
2019-01-25T01:46:17.292Z,101422.09
2019-01-25T01:48:49.038Z,101428.22
2019-01-25T01:51:20.839Z,101426.78
2019-01-25T01:53:53.417Z,101423.66
2019-01-25T01:56:25.383Z,101428.80
2019-01-25T01:58:57.715Z,101428.95
2019-01-25T02:01:29.901Z,101434.94
2019-01-25T02:04:02.115Z,101427.64
2019-01-25T02:06:34.296Z,101430.66
2019-01-25T02:09:09.779Z,101421.47
2019-01-25T02:11:42.158Z,101418.23
2019-01-25T02:14:14.043Z,101414.77
2019-01-25T02:16:46.321Z,101421.93
2019-01-25T02:19:18.954Z,101417.92
2019-01-25T02:21:51.167Z,101426.54
2019-01-25T02:24:24.541Z,101428.50
2019-01-25T02:26:56.777Z,101429.17
2019-01-25T02:29:29.141Z,101434.17
2019-01-25T02:32:01.058Z,101427.05
2019-01-25T02:34:33.432Z,101429.77
2019-01-25T02:37:05.475Z,101428.50
2019-01-25T02:39:39.142Z,101427.54
2019-01-25T02:42:11.024Z,101420.98
2019-01-25T02:44:43.627Z,101424.34
2019-01-25T02:47:15.445Z,101416.18
2019-01-25T02:49:47.621Z,101411.34
2019-01-25T02:52:20.352Z,101408.09
2019-01-25T02:54:52.201Z,101394.40
2019-01-25T02:57:24.009Z,101400.13
2019-01-25T02:59:57.054Z,101399.21
2019-01-25T03:02:29.063Z,101399.56
2019-01-25T03:05:01.465Z,101400.34
2019-01-25T03:07:33.410Z,101403.78
2019-01-25T03:10:08.172Z,101400.80
2019-01-25T03:12:40.037Z,101409.25
2019-01-25T03:15:15.943Z,101406.94
2019-01-25T03:17:47.916Z,101403.78
2019-01-25T03:20:21.243Z,101401.72
2019-01-25T03:22:53.928Z,101405.68
2019-01-25T03:25:28.497Z,101394.33
2019-01-25T03:28:00.808Z,101393.02
2019-01-25T03:30:33.064Z,101395.56
2019-01-25T03:33:05.010Z,101385.27
2019-01-25T03:35:37.671Z,101388.99
2019-01-25T03:38:09.944Z,101395.56
2019-01-25T03:40:43.591Z,101397.88
2019-01-25T03:43:15.934Z,101405.39
2019-01-25T03:45:48.727Z,101406.83
2019-01-25T03:48:20.259Z,101405.75
2019-01-25T03:50:51.383Z,101404.35
2019-01-25T03:53:22.504Z,101395.23
2019-01-25T03:55:54.188Z,101397.44
2019-01-25T03:58:25.787Z,101401.73
2019-01-25T04:00:57.001Z,101390.21
2019-01-25T04:03:28.839Z,101385.20
2019-01-25T04:06:01.084Z,101383.37
2019-01-25T04:08:32.984Z,101381.48
2019-01-25T04:11:06.036Z,101395.50
2019-01-25T04:13:38.392Z,101386.13
2019-01-25T04:16:10.302Z,101391.94
2019-01-25T04:18:42.702Z,101390.84
2019-01-25T04:21:16.212Z,101403.35
2019-01-25T04:23:48.437Z,101398.11
2019-01-25T04:26:21.063Z,101407.26
2019-01-25T04:28:53.068Z,101400.22
2019-01-25T04:31:24.993Z,101411.05
2019-01-25T04:33:57.135Z,101409.38
2019-01-25T04:36:28.993Z,101407.90
2019-01-25T04:39:03.415Z,101405.48
2019-01-25T04:41:35.820Z,101406.27
2019-01-25T04:44:09.173Z,101396.01
2019-01-25T04:46:42.394Z,101402.84
2019-01-25T04:49:15.271Z,101398.56
2019-01-25T04:51:47.401Z,101404.63
2019-01-25T04:54:19.453Z,101407.55
2019-01-25T04:59:43.923Z,101400.23
2019-01-25T05:02:16.209Z,101404.60
2019-01-25T05:04:48.932Z,101406.47
2019-01-25T05:07:21.176Z,101405.19
2019-01-25T05:09:53.651Z,101411.06
2019-01-25T05:12:25.529Z,101410.97
2019-01-25T05:14:57.717Z,101411.12
2019-01-25T05:17:29.637Z,101414.39
2019-01-25T05:20:01.755Z,101407.10
2019-01-25T05:22:34.302Z,101421.93
2019-01-25T05:25:07.598Z,101429.38
2019-01-25T05:27:40.157Z,101417.22
2019-01-25T05:30:13.566Z,101417.13
2019-01-25T05:32:46.134Z,101422.86
2019-01-25T05:35:19.149Z,101419.00
2019-01-25T05:37:51.527Z,101417.76
2019-01-25T05:40:28.319Z,101425.48
2019-01-25T05:43:00.731Z,101427.17
2019-01-25T05:45:32.640Z,101422.23
2019-01-25T05:48:05.188Z,101407.16
2019-01-25T05:50:37.124Z,101422.41
2019-01-25T05:53:09.399Z,101419.38
2019-01-25T05:55:41.996Z,101421.30
2019-01-25T05:58:13.800Z,101415.80
2019-01-25T06:00:46.396Z,101423.92
2019-01-25T06:03:18.805Z,101410.28
2019-01-25T06:05:50.805Z,101419.51
2019-01-25T06:08:34.236Z,101419.46
2019-01-25T06:11:14.824Z,101407.00
2019-01-25T06:13:57.617Z,101400.74
2019-01-25T06:16:30.037Z,101414.35
2019-01-25T06:19:02.710Z,101410.12
2019-01-25T06:21:34.670Z,101425.84
2019-01-25T06:24:07.059Z,101413.16
2019-01-25T06:26:40.711Z,101413.62
2019-01-25T06:29:13.688Z,101410.66
2019-01-25T06:31:45.890Z,101410.09
2019-01-25T06:34:17.694Z,101411.09
2019-01-25T06:36:50.247Z,101411.70
2019-01-25T06:39:22.800Z,101407.28
2019-01-25T06:41:55.157Z,101406.59
2019-01-25T06:44:27.743Z,101403.00
2019-01-25T06:46:59.975Z,101396.34
2019-01-25T06:49:32.618Z,101395.50
2019-01-25T06:52:05.996Z,101401.61
2019-01-25T06:54:39.227Z,101398.95
2019-01-25T06:57:25.547Z,101402.72
2019-01-25T06:59:57.428Z,101393.96
2019-01-25T07:02:36.613Z,101389.54
2019-01-25T07:05:11.633Z,101381.03
2019-01-25T07:07:45.419Z,101393.28
2019-01-25T07:10:24.327Z,101385.28
2019-01-25T07:12:56.001Z,101407.06
2019-01-25T07:15:27.826Z,101406.75
2019-01-25T07:17:59.696Z,101413.69
2019-01-25T07:20:31.361Z,101410.69
2019-01-25T07:23:02.766Z,101403.86
2019-01-25T07:25:34.513Z,101410.31
2019-01-25T07:28:07.210Z,101407.95
2019-01-25T07:30:39.413Z,101391.01
2019-01-25T07:33:11.348Z,101392.65
2019-01-25T07:35:43.993Z,101392.33
2019-01-25T07:38:18.506Z,101396.45
2019-01-25T07:40:50.433Z,101404.93
2019-01-25T07:43:23.655Z,101403.19
2019-01-25T07:45:55.652Z,101392.05
2019-01-25T07:48:27.156Z,101404.00
2019-01-25T07:50:58.541Z,101398.46
2019-01-25T07:53:30.492Z,101406.25
2019-01-25T07:56:02.935Z,101403.78
2019-01-25T07:58:35.793Z,101404.94
2019-01-25T08:01:07.286Z,101401.64
2019-01-25T08:03:39.650Z,101408.78
2019-01-25T08:06:11.375Z,101399.33
2019-01-25T08:08:44.101Z,101404.97
2019-01-25T08:11:15.775Z,101396.47
2019-01-25T08:13:48.024Z,101396.88
2019-01-25T08:16:20.601Z,101394.55
2019-01-25T08:18:52.201Z,101403.91
2019-01-25T08:21:26.426Z,101399.95
2019-01-25T08:23:58.781Z,101413.66
2019-01-25T08:26:31.983Z,101414.95
2019-01-25T08:29:04.090Z,101409.80
2019-01-25T08:31:36.781Z,101407.26
2019-01-25T08:34:09.312Z,101400.75
2019-01-25T08:36:41.906Z,101409.13
2019-01-25T08:39:16.909Z,101392.81
2019-01-25T08:41:49.114Z,101384.29
2019-01-25T08:44:21.511Z,101386.11
2019-01-25T08:46:52.965Z,101391.58
2019-01-25T08:49:25.061Z,101388.50
2019-01-25T08:51:57.871Z,101387.86
2019-01-25T08:54:29.990Z,101388.03
2019-01-25T08:57:02.204Z,101390.30
2019-01-25T08:59:34.038Z,101390.02
2019-01-25T09:02:06.549Z,101397.05
2019-01-25T09:04:39.266Z,101402.92
2019-01-25T09:07:11.338Z,101403.52
2019-01-25T09:09:44.127Z,101407.78
2019-01-25T09:12:23.393Z,101407.55
2019-01-25T09:14:53.912Z,101403.90
2019-01-25T09:17:26.248Z,101410.34
2019-01-25T09:19:58.309Z,101415.67
2019-01-25T09:22:30.585Z,101413.06
2019-01-25T09:25:04.327Z,101410.70
2019-01-25T09:27:37.519Z,101406.37
2019-01-25T09:30:14.227Z,101402.08
2019-01-25T09:32:46.381Z,101400.16
2019-01-25T09:35:20.851Z,101395.30
2019-01-25T09:37:53.038Z,101397.81
2019-01-25T09:40:25.844Z,101380.15
2019-01-25T09:42:58.437Z,101383.20
2019-01-25T09:45:31.158Z,101370.67
2019-01-25T09:48:03.065Z,101371.59
2019-01-25T09:50:39.941Z,101353.33
2019-01-25T09:53:12.683Z,101354.30
2019-01-25T09:55:45.008Z,101357.59
2019-01-25T09:58:19.552Z,101348.97
2019-01-25T10:01:06.663Z,101348.31
2019-01-25T10:03:47.354Z,101349.89
2019-01-25T10:06:22.552Z,101354.49
2019-01-25T10:08:54.817Z,101358.63
2019-01-25T10:11:27.219Z,101354.69
2019-01-25T10:13:59.481Z,101365.17
2019-01-25T10:16:32.486Z,101358.56
2019-01-25T10:19:04.306Z,101346.46
2019-01-25T10:21:36.632Z,101342.16
2019-01-25T10:24:09.231Z,101334.67
2019-01-25T10:26:42.621Z,101339.83
2019-01-25T10:29:15.415Z,101336.45
2019-01-25T10:31:49.671Z,101335.13
2019-01-25T10:34:22.203Z,101324.89
2019-01-25T10:36:55.045Z,101328.05
2019-01-25T10:39:27.278Z,101322.22
2019-01-25T10:42:01.026Z,101322.08
2019-01-25T10:44:33.599Z,101321.87
2019-01-25T10:47:07.277Z,101314.44
2019-01-25T10:49:40.128Z,101308.34
2019-01-25T10:52:12.663Z,101305.83
2019-01-25T10:54:45.949Z,101301.55
2019-01-25T10:57:18.410Z,101296.00
2019-01-25T10:59:51.540Z,101286.52
2019-01-25T11:02:24.264Z,101288.47
2019-01-25T11:04:56.403Z,101291.61
2019-01-25T11:07:29.492Z,101282.89
2019-01-25T11:10:02.643Z,101282.44
2019-01-25T11:12:36.275Z,101268.94
2019-01-25T11:15:11.486Z,101266.52
2019-01-25T11:17:44.966Z,101265.35
2019-01-25T11:20:20.278Z,101253.59
2019-01-25T11:22:53.277Z,101259.30
2019-01-25T11:25:44.412Z,101260.33
2019-01-25T11:28:16.508Z,101255.82
2019-01-25T11:30:49.428Z,101257.51
2019-01-25T11:33:22.021Z,101253.52
2019-01-25T11:35:54.165Z,101269.64
2019-01-25T11:38:26.549Z,101258.38
2019-01-25T11:40:58.853Z,101257.29
2019-01-25T11:43:31.058Z,101249.86
2019-01-25T11:46:03.531Z,101255.07
2019-01-25T11:48:36.244Z,101251.53
2019-01-25T11:51:08.459Z,101238.11
2019-01-25T11:53:40.790Z,101246.82
2019-01-25T11:56:13.038Z,101245.82
2019-01-25T11:58:46.302Z,101246.16
2019-01-25T12:01:19.203Z,101246.45
2019-01-25T12:03:52.656Z,101250.67
2019-01-25T12:06:25.009Z,101246.59
2019-01-25T12:08:58.715Z,101242.96
2019-01-25T12:11:31.274Z,101232.43
2019-01-25T12:14:03.517Z,101232.09
2019-01-25T12:16:36.304Z,101228.14
2019-01-25T12:19:08.416Z,101218.50
2019-01-25T12:21:41.036Z,101224.12
2019-01-25T12:24:12.948Z,101214.26
2019-01-25T12:26:45.162Z,101209.39
2019-01-25T12:29:17.383Z,101204.88
2019-01-25T12:31:49.071Z,101205.95
2019-01-25T12:34:20.947Z,101196.93
2019-01-25T12:36:52.873Z,101195.20
2019-01-25T12:39:25.057Z,101189.50
2019-01-25T12:41:56.717Z,101190.32
2019-01-25T12:44:29.063Z,101198.16
2019-01-25T12:47:01.792Z,101201.69
2019-01-25T12:49:34.533Z,101192.55
2019-01-25T12:52:10.054Z,101194.52
2019-01-25T12:54:42.284Z,101181.61
2019-01-25T12:57:14.763Z,101182.08
2019-01-25T12:59:46.851Z,101176.79
2019-01-25T13:02:19.701Z,101180.75
2019-01-25T13:04:51.457Z,101173.25
2019-01-25T13:07:25.753Z,101168.41
2019-01-25T13:09:58.058Z,101174.10
2019-01-25T13:12:30.628Z,101174.55
2019-01-25T13:15:05.653Z,101170.11
2019-01-25T13:17:38.829Z,101165.60
2019-01-25T13:20:16.254Z,101163.42
2019-01-25T13:22:49.693Z,101157.81
2019-01-25T13:25:21.834Z,101152.00
2019-01-25T13:27:53.516Z,101142.41
2019-01-25T13:30:28.251Z,101132.42
2019-01-25T13:33:01.049Z,101133.31
2019-01-25T13:35:33.860Z,101124.48
2019-01-25T13:38:05.581Z,101127.58
2019-01-25T13:40:37.564Z,101124.05
2019-01-25T13:43:09.962Z,101111.39
2019-01-25T13:45:42.417Z,101111.37
2019-01-25T13:48:14.522Z,101118.84
2019-01-25T13:50:47.769Z,101122.99
2019-01-25T13:53:21.703Z,101121.26
2019-01-25T13:55:53.912Z,101120.77
2019-01-25T13:58:26.524Z,101122.13
2019-01-25T14:01:00.110Z,101119.91
2019-01-25T14:03:32.862Z,101120.86
2019-01-25T14:06:09.725Z,101123.55
2019-01-25T14:08:44.397Z,101117.27
2019-01-25T14:11:16.372Z,101121.81
2019-01-25T14:13:48.751Z,101117.88
2019-01-25T14:16:20.833Z,101117.00
2019-01-25T14:18:52.681Z,101123.80
2019-01-25T14:21:24.855Z,101130.47
2019-01-25T14:24:00.061Z,101129.72
2019-01-25T14:26:31.700Z,101128.01
2019-01-25T14:29:05.166Z,101129.19
2019-01-25T14:31:37.737Z,101124.07
2019-01-25T14:34:09.855Z,101116.77
2019-01-25T14:36:45.443Z,101113.17
2019-01-25T14:39:17.842Z,101121.97
2019-01-25T14:41:50.949Z,101110.70
2019-01-25T14:44:23.828Z,101098.88
2019-01-25T14:46:58.046Z,101104.48
2019-01-25T14:49:32.012Z,101103.80
2019-01-25T14:52:07.256Z,101102.56
2019-01-25T14:54:43.196Z,101103.38
2019-01-25T14:57:16.582Z,101090.54
2019-01-25T14:59:50.085Z,101091.09
2019-01-25T15:02:25.666Z,101096.89
2019-01-25T15:04:58.842Z,101090.70
2019-01-25T15:07:35.277Z,101091.59
2019-01-25T15:10:17.057Z,101091.96
2019-01-25T15:12:50.471Z,101084.61
2019-01-25T15:15:24.650Z,101083.72
2019-01-25T15:17:57.793Z,101074.09
2019-01-25T15:20:32.886Z,101063.10
2019-01-25T15:23:08.731Z,101055.22
2019-01-25T15:25:41.643Z,101055.62
2019-01-25T15:28:21.896Z,101061.36
2019-01-25T15:30:56.287Z,101064.88
2019-01-25T15:33:29.134Z,101056.50
2019-01-25T15:36:01.910Z,101061.75
2019-01-25T15:38:34.427Z,101064.42
2019-01-25T15:41:06.721Z,101058.24
2019-01-25T15:43:40.499Z,101049.52
2019-01-25T15:46:13.930Z,101055.66
2019-01-25T15:48:47.251Z,101071.85
2019-01-25T15:51:22.574Z,101076.72
2019-01-25T15:53:54.680Z,101071.88
2019-01-25T15:56:30.668Z,101067.91
2019-01-25T15:59:06.986Z,101063.95
2019-01-25T16:01:40.415Z,101050.81
2019-01-25T16:04:13.444Z,101060.47
2019-01-25T16:06:46.313Z,101045.50
2019-01-25T16:09:23.301Z,101045.11
2019-01-25T16:11:53.421Z,101046.87
2019-01-25T16:14:25.729Z,101053.87
2019-01-25T16:16:58.226Z,101036.35
2019-01-25T16:19:30.660Z,101031.97
2019-01-25T16:22:02.942Z,101021.85
2019-01-25T16:24:35.302Z,101017.06
2019-01-25T16:27:07.952Z,101023.54
2019-01-25T16:29:40.595Z,101034.13
2019-01-25T16:32:12.302Z,101039.36
2019-01-25T16:34:44.025Z,101030.14
2019-01-25T16:37:16.673Z,101020.98
2019-01-25T16:39:48.964Z,101015.73
2019-01-25T16:42:21.902Z,101022.64
2019-01-25T16:44:53.525Z,101002.06
2019-01-25T16:47:25.176Z,100986.68
2019-01-25T16:49:58.432Z,100983.69
2019-01-25T16:52:32.393Z,100979.32
2019-01-25T16:55:05.246Z,100993.80
2019-01-25T16:57:37.182Z,100993.78
2019-01-25T17:00:24.051Z,100992.44
2019-01-25T17:02:57.332Z,100987.20
2019-01-25T17:05:30.587Z,100978.43
2019-01-25T17:08:02.384Z,100980.98
2019-01-25T17:10:36.497Z,100972.23
2019-01-25T17:13:09.147Z,100970.85
2019-01-25T17:15:42.484Z,100953.83
2019-01-25T17:18:14.510Z,100939.77
2019-01-25T17:20:48.466Z,100938.07
2019-01-25T17:23:28.251Z,100949.83
2019-01-25T17:26:20.388Z,100948.58
2019-01-25T17:28:57.356Z,100945.89
2019-01-25T17:31:33.455Z,100934.62
2019-01-25T17:34:08.622Z,100927.59
2019-01-25T17:36:45.815Z,100926.25
2019-01-25T17:39:24.339Z,100929.27
2019-01-25T17:41:59.049Z,100921.83
2019-01-25T17:44:31.274Z,100910.45
2019-01-25T17:47:03.936Z,100898.58
2019-01-25T17:49:39.359Z,100887.63
2019-01-25T17:52:14.788Z,100883.33
2019-01-25T17:54:49.147Z,100877.62
2019-01-25T17:57:21.168Z,100861.84
2019-01-25T17:59:55.346Z,100865.33
2019-01-25T18:02:27.960Z,100854.41
2019-01-25T18:05:00.258Z,100841.27
2019-01-25T18:07:36.275Z,100830.30
2019-01-25T18:10:17.003Z,100829.86
2019-01-25T18:12:49.971Z,100817.56
2019-01-25T18:15:24.751Z,100800.52
2019-01-25T18:17:59.220Z,100792.63
2019-01-25T18:20:49.375Z,100783.38
2019-01-25T18:23:25.564Z,100767.63
2019-01-25T18:41:15.317Z,100739.19
2019-01-25T18:44:35.549Z,100733.05
2019-01-25T18:47:54.080Z,100711.53
2019-01-25T18:54:15.763Z,100706.75
2019-01-25T18:57:37.305Z,100700.63
2019-01-25T19:07:12.549Z,100684.84
2019-01-25T19:13:35.486Z,100683.55
2019-01-25T19:16:42.888Z,100682.19
2019-01-25T19:19:44.066Z,100678.67
2019-01-25T19:22:25.444Z,100680.50
2019-01-25T19:25:19.199Z,100673.05
2019-01-25T19:31:17.018Z,100679.59
2019-01-25T19:33:54.224Z,100676.97
2019-01-25T19:36:40.829Z,100669.11
2019-01-25T19:39:30.880Z,100663.39
2019-01-25T19:42:30.653Z,100648.91
2019-01-25T19:45:18.899Z,100641.45
2019-01-25T19:48:17.470Z,100642.32
2019-01-25T19:54:20.447Z,100629.23
2019-01-25T19:57:12.066Z,100617.45
2019-01-25T20:00:33.747Z,100605.20
2019-01-25T20:06:04.871Z,100597.78
2019-01-25T20:08:38.843Z,100589.83
2019-01-25T20:11:13.917Z,100589.92
2019-01-25T20:13:51.916Z,100588.19
2019-01-25T20:16:40.087Z,100579.00
2019-01-25T20:19:19.453Z,100571.98
2019-01-25T20:21:54.097Z,100571.98
2019-01-25T20:24:27.946Z,100562.77
2019-01-25T20:30:00.508Z,100557.11
2019-01-25T20:32:59.506Z,100549.20
2019-01-25T20:35:39.655Z,100536.52
2019-01-25T20:38:14.680Z,100542.61
2019-01-25T20:41:09.668Z,100536.04
2019-01-25T20:43:44.912Z,100532.56
2019-01-25T20:46:31.621Z,100522.52
2019-01-25T20:49:38.341Z,100519.06
2019-01-25T20:55:30.356Z,100497.47
2019-01-25T20:58:15.328Z,100507.17
2019-01-25T21:00:48.544Z,100502.72
2019-01-25T21:03:22.698Z,100496.52
2019-01-25T21:05:55.068Z,100504.39
2019-01-25T21:08:29.022Z,100496.47
2019-01-25T21:11:00.864Z,100494.41
2019-01-25T21:13:32.944Z,100478.13
2019-01-25T21:16:09.380Z,100466.71
2019-01-25T21:18:44.187Z,100468.59
2019-01-25T21:21:17.980Z,100462.92
2019-01-25T21:23:50.758Z,100455.41
2019-01-25T21:26:25.283Z,100448.85
2019-01-25T21:28:57.495Z,100440.57
2019-01-25T21:31:30.613Z,100439.72
2019-01-25T21:34:03.483Z,100440.91
2019-01-25T21:36:40.250Z,100426.46
2019-01-25T21:39:14.568Z,100435.77
2019-01-25T21:41:48.897Z,100420.73
2019-01-25T21:44:22.664Z,100416.83
2019-01-25T21:46:55.426Z,100415.53
2019-01-25T21:49:27.990Z,100411.99
2019-01-25T21:52:02.303Z,100409.29
2019-01-25T21:54:35.248Z,100411.84
2019-01-25T21:57:08.937Z,100405.23
2019-01-25T21:59:41.687Z,100406.16
2019-01-25T22:02:15.173Z,100388.75
2019-01-25T22:04:49.329Z,100393.70
2019-01-25T22:07:21.886Z,100382.50
2019-01-25T22:09:54.030Z,100353.47
2019-01-25T22:12:26.762Z,100335.69
2019-01-25T22:14:59.012Z,100335.13
2019-01-25T22:17:32.198Z,100318.80
2019-01-25T22:20:05.907Z,100324.77
2019-01-25T22:22:38.782Z,100324.29
2019-01-25T22:25:11.551Z,100320.95
2019-01-25T22:27:47.226Z,100336.72
2019-01-25T22:30:21.752Z,100330.05
2019-01-25T22:32:55.941Z,100332.81
2019-01-25T22:35:32.574Z,100332.85
2019-01-25T22:38:16.947Z,100325.45
2019-01-25T22:41:01.394Z,100316.81
2019-01-25T22:44:01.046Z,100313.97
2019-01-25T22:46:48.056Z,100309.19
2019-01-25T22:50:03.625Z,100295.42
2019-01-25T23:00:24.234Z,100270.50
2019-01-25T23:02:59.501Z,100252.67
2019-01-25T23:05:56.139Z,100249.48
2019-01-25T23:08:31.886Z,100252.04
2019-01-25T23:11:10.203Z,100253.39
2019-01-25T23:13:46.327Z,100258.14
2019-01-25T23:16:25.360Z,100252.31
2019-01-25T23:19:13.451Z,100258.42
2019-01-25T23:24:59.225Z,100254.70
2019-01-25T23:28:02.896Z,100254.42
2019-01-25T23:37:11.830Z,100222.25
2019-01-25T23:48:50.026Z,100226.28
2019-01-25T23:51:23.114Z,100224.50
2019-01-25T23:54:00.809Z,100218.77
2019-01-25T23:56:37.243Z,100217.94
2019-01-25T23:59:19.896Z,100207.77
